• Join FlightAware (Why Join?)
  • Login
  • US Flag 
11:48AM EDT


 

Airport Tracker/Info


-or-


 

Live Flight TrackerFlight Track Log ✈ ASQ5025 ✈ 03-May-2013 ✈ KBTV - KLGA

Flight Track Log - Related Links

Times and Time Zones

All times are in EDT time to prevent confusion due to time zone crossing. See the ASQ5025 flight status page for this flight to view local times or setup timezone preferences in your user account.

Time Position Orientation Groundspeed Altitude Reporting Facility
EDT Latitude Longitude Course Direction KTS MPH feet Rate Location/Type
03:24PM 44.4814 -73.2372 196° South 154 177 4,400  Level Boston Center
03:25PM 44.4147 -73.2539 190° South 175 201 7,300 3,120 Climbing Boston Center
03:26PM 44.3417 -73.2761 192° South 246 283 10,700 2,760 Climbing Boston Center
03:27PM 44.2581 -73.3039 193° South 297 342 12,900 2,400 Climbing Boston Center
03:28PM 44.1472 -73.3428 194° South 355 409 15,500 2,460 Climbing Boston Center
03:29PM 44.0884 -73.2913 196° South  Level FlightAware Approximate
03:29PM 44.0428 -73.3786 194° South 384 442 17,900  Level Boston Center
03:30PM 44.0130 -73.3215 196° South  Level FlightAware Approximate
03:30PM 43.9364 -73.4144 194° South 401 461 19,900  Level Boston Center
03:31PM 43.8194 -73.4444 190° South 406 467 20,000  Climbing Boston Center
03:32PM 43.7067 -73.4539 183° South 419 482 20,000  Level Boston Center
03:33PM 43.5942 -73.4636 184° South 419 482 20,000  Level Boston Center
03:34PM 43.4794 -73.4731 183° South 419 482 20,000  Level Boston Center
03:35PM 43.3647 -73.4825 183° South 419 482 20,000  Level Boston Center
03:36PM 43.2522 -73.4892 182° South 419 482 20,000  Level Boston Center
03:37PM 43.1417 -73.4986 184° South 413 475 20,000  Level Boston Center
03:38PM 43.0228 -73.5108 184° South 413 475 20,000  Level Boston Center
03:39PM 42.9100 -73.5200 183° South 413 475 20,000  Level Boston Center
03:40PM 42.8017 -73.5267 183° South 406 467 20,000  Level Boston Center
03:41PM 42.6889 -73.5361 184° South 406 467 20,000  Level Boston Center
03:42PM 42.5742 -73.5453 183° South 406 467 20,000  Level Boston Center
03:43PM 42.4617 -73.5544 183° South 406 467 20,000 -60 Level Boston Center
03:44PM 42.3719 -73.5614 183° South 406 467 19,900 -660 Descending Boston Center
03:45PM 42.2406 -73.5731 184° South 401 461 18,700 -960 Descending Boston Center
03:46PM 42.1447 -73.5769 182° South 379 436 18,000 -360 Descending Boston Center
03:47PM 42.0508 -73.5808 182° South 367 422 18,000  Level Boston Center
03:48PM 41.9236 -73.5897 183° South 401 461 18,000  Level Boston Center
03:49PM 41.8317 -73.5992 184° South 394 453 18,000  Level Boston Center
03:50PM 41.7436 -73.6614 208° Southwest 322 371 18,000 -420 Level Boston Center
03:51PM 41.6803 -73.7242 217° Southwest 327 376 17,200 -1,560 Descending Boston Center
03:52PM 41.5667 -73.7500 190° South 322 371 14,600 -2,220 Descending New York TRACON
03:54PM 41.4667 -73.7667 187° South 308 354 12,100 -2,220 Descending New York TRACON
03:55PM 41.3833 -73.7833 189° South 293 337 10,000 -1,920 Descending New York TRACON
03:56PM 41.3167 -73.7667 169° South 277 319 8,300 -960 Descending New York TRACON
03:57PM 41.2500 -73.7167 151° Southeast 264 304 8,100 -420 Descending New York TRACON
03:59PM 41.1333 -73.6500 157° South 248 285 7,100 -720 Descending New York TRACON
04:00PM 41.0667 -73.6500 180° South 237 273 6,100 -1,020 Descending New York TRACON
04:01PM 41.0167 -73.6833 207° Southwest 234 269 5,100 -960 Descending New York TRACON
04:02PM 40.9500 -73.7333 210° Southwest 232 267 4,200 -1,080 Descending New York TRACON
04:03PM 40.9000 -73.7667 207° Southwest 216 249 3,000 -1,200 Descending New York TRACON
04:04PM 40.8667 -73.8167 229° Southwest 184 212 1,900 -960 Descending New York TRACON
04:05PM 40.8333 -73.8333 201° Southwest 135 155 1,100 -840 Descending New York TRACON
04:06PM 40.8000 -73.8667 217° Southwest 122 140 300 -840 Descending New York TRACON
04:08PM 40.7772 -73.8726 180° South  Level Estimated
04:15PM 40.7772 -73.8726 180° South  Level Estimated